createdAt,value
2018-04-29T00:01:11.306Z,14.30
2018-04-29T00:03:38.796Z,14.40
2018-04-29T00:06:06.386Z,14.30
2018-04-29T00:08:33.900Z,14.30
2018-04-29T00:11:01.421Z,14.30
2018-04-29T00:13:29.046Z,14.20
2018-04-29T00:15:56.569Z,14.10
2018-04-29T00:18:24.145Z,14.10
2018-04-29T00:20:51.654Z,13.90
2018-04-29T00:23:19.993Z,13.70
2018-04-29T00:25:47.527Z,13.70
2018-04-29T00:28:15.066Z,13.70
2018-04-29T00:30:43.357Z,13.40
2018-04-29T00:33:10.889Z,13.40
2018-04-29T00:35:39.443Z,13.30
2018-04-29T00:38:06.970Z,13.20
2018-04-29T00:40:35.234Z,13.10
2018-04-29T00:43:04.518Z,13.00
2018-04-29T00:45:32.102Z,13.00
2018-04-29T00:47:59.731Z,13.00
2018-04-29T00:50:27.309Z,13.00
2018-04-29T00:52:54.844Z,12.90
2018-04-29T00:55:22.491Z,12.80
2018-04-29T00:57:50.012Z,12.70
2018-04-29T01:00:18.081Z,12.70
2018-04-29T01:02:45.625Z,12.70
2018-04-29T01:05:13.159Z,12.60
2018-04-29T01:07:40.755Z,12.50
2018-04-29T01:10:10.251Z,12.40
2018-04-29T01:12:37.751Z,12.30
2018-04-29T01:18:05.356Z,12.30
2018-04-29T01:20:32.904Z,12.20
2018-04-29T01:23:05.432Z,12.10
2018-04-29T01:25:32.906Z,12.40
2018-04-29T01:28:02.388Z,12.30
2018-04-29T01:30:29.893Z,12.30
2018-04-29T01:32:57.459Z,12.30
2018-04-29T01:35:24.981Z,12.10
2018-04-29T01:37:52.470Z,12.10
2018-04-29T01:40:20.029Z,12.10
2018-04-29T01:42:47.570Z,12.00
2018-04-29T01:45:15.092Z,12.00
2018-04-29T01:47:43.601Z,12.00
2018-04-29T01:50:11.186Z,12.00
2018-04-29T01:52:38.718Z,11.90
2018-04-29T01:55:06.235Z,11.90
2018-04-29T01:57:33.943Z,11.90
2018-04-29T02:00:01.469Z,11.80
2018-04-29T02:02:28.992Z,11.70
2018-04-29T02:04:57.307Z,11.70
2018-04-29T02:07:24.829Z,11.70
2018-04-29T02:09:52.370Z,11.70
2018-04-29T02:12:20.797Z,11.60
2018-04-29T02:14:48.287Z,11.70
2018-04-29T02:17:15.798Z,11.50
2018-04-29T02:19:43.411Z,11.40
2018-04-29T02:22:11.122Z,11.30
2018-04-29T02:24:38.626Z,11.30
2018-04-29T02:27:07.095Z,11.30
2018-04-29T02:29:35.363Z,11.30
2018-04-29T02:32:03.698Z,11.30
2018-04-29T02:34:32.126Z,11.30
2018-04-29T02:37:00.561Z,11.30
2018-04-29T02:39:28.071Z,11.20
2018-04-29T02:41:55.627Z,11.20
2018-04-29T02:44:23.153Z,11.10
2018-04-29T02:46:50.844Z,11.10
2018-04-29T02:49:18.453Z,11.00
2018-04-29T02:51:46.024Z,10.80
2018-04-29T02:54:13.584Z,10.70
2018-04-29T02:56:41.144Z,10.80
2018-04-29T02:59:09.531Z,10.70
2018-04-29T03:01:37.085Z,10.70
2018-04-29T03:04:04.658Z,10.70
2018-04-29T03:06:32.942Z,10.70
2018-04-29T03:09:01.216Z,10.70
2018-04-29T03:11:30.462Z,10.80
2018-04-29T03:13:58.958Z,10.80
2018-04-29T03:16:26.472Z,10.80
2018-04-29T03:18:54.213Z,10.80
2018-04-29T03:21:21.805Z,10.70
2018-04-29T03:23:49.403Z,10.70
2018-04-29T03:26:16.897Z,10.60
2018-04-29T03:28:44.491Z,10.60
2018-04-29T03:31:12.012Z,10.60
2018-04-29T03:33:40.442Z,10.50
2018-04-29T03:36:08.750Z,10.60
2018-04-29T03:38:36.301Z,10.60
2018-04-29T03:41:03.888Z,10.70
2018-04-29T03:43:32.421Z,10.70
2018-04-29T03:45:59.938Z,10.80
2018-04-29T03:48:27.534Z,10.70
2018-04-29T03:50:55.033Z,10.70
2018-04-29T03:53:23.319Z,10.70
2018-04-29T03:55:53.526Z,10.80
2018-04-29T03:58:32.842Z,10.80
2018-04-29T04:01:12.230Z,11.00
2018-04-29T04:03:50.512Z,11.10
2018-04-29T04:06:19.728Z,11.20
2018-04-29T04:08:48.026Z,11.30
2018-04-29T04:11:15.575Z,11.30
2018-04-29T04:13:43.915Z,11.30
2018-04-29T04:16:11.453Z,11.30
2018-04-29T04:18:38.989Z,11.50
2018-04-29T04:21:07.254Z,11.50
2018-04-29T04:23:35.724Z,11.50
2018-04-29T04:26:04.143Z,11.40
2018-04-29T04:28:31.716Z,11.10
2018-04-29T04:31:00.195Z,11.10
2018-04-29T04:33:27.761Z,11.20
2018-04-29T04:36:01.031Z,11.30
2018-04-29T04:38:28.606Z,11.50
2018-04-29T04:40:56.144Z,11.50
2018-04-29T04:43:24.592Z,11.60
2018-04-29T04:45:53.047Z,11.50
2018-04-29T04:48:22.320Z,11.90
2018-04-29T04:50:51.830Z,11.90
2018-04-29T04:53:19.354Z,12.30
2018-04-29T04:55:47.041Z,12.60
2018-04-29T04:58:14.740Z,12.80
2018-04-29T05:00:42.284Z,12.70
2018-04-29T05:03:09.873Z,12.80
2018-04-29T05:05:37.427Z,12.70
2018-04-29T05:08:04.958Z,12.60
2018-04-29T05:10:33.189Z,12.50
2018-04-29T05:13:01.570Z,12.60
2018-04-29T05:15:31.087Z,12.50
2018-04-29T05:17:59.364Z,12.30
2018-04-29T05:20:26.963Z,12.30
2018-04-29T05:22:54.517Z,12.20
2018-04-29T05:25:22.048Z,12.10
2018-04-29T05:27:50.509Z,12.10
2018-04-29T05:30:18.002Z,12.20
2018-04-29T05:32:45.510Z,12.30
2018-04-29T05:35:13.131Z,12.20
2018-04-29T05:37:41.412Z,12.10
2018-04-29T05:40:10.365Z,12.10
2018-04-29T05:42:37.944Z,12.00
2018-04-29T05:45:05.561Z,11.80
2018-04-29T05:47:33.114Z,11.70
2018-04-29T05:50:00.678Z,11.80
2018-04-29T05:52:28.932Z,11.90
2018-04-29T05:54:56.617Z,11.90
2018-04-29T05:57:24.179Z,11.90
2018-04-29T05:59:53.384Z,11.90
2018-04-29T06:02:21.082Z,11.90
2018-04-29T06:04:48.673Z,12.10
2018-04-29T06:07:16.180Z,12.20
2018-04-29T06:09:44.468Z,12.20
2018-04-29T06:12:12.020Z,12.20
2018-04-29T06:14:39.629Z,12.50
2018-04-29T06:17:07.128Z,12.60
2018-04-29T06:19:38.644Z,12.60
2018-04-29T06:22:06.192Z,12.60
2018-04-29T06:24:34.533Z,12.90
2018-04-29T06:27:02.047Z,12.90
2018-04-29T06:29:30.465Z,13.20
2018-04-29T06:31:58.930Z,13.40
2018-04-29T06:34:26.539Z,13.80
2018-04-29T06:36:54.055Z,14.20
2018-04-29T06:39:21.605Z,14.60
2018-04-29T06:41:49.145Z,15.00
2018-04-29T06:44:16.708Z,15.00
2018-04-29T06:46:45.095Z,14.70
2018-04-29T06:49:13.479Z,14.70
2018-04-29T06:51:43.058Z,14.60
2018-04-29T06:54:10.607Z,14.70
2018-04-29T06:56:38.124Z,14.80
2018-04-29T06:59:07.605Z,14.80
2018-04-29T07:01:38.040Z,14.70
2018-04-29T07:04:11.704Z,14.60
2018-04-29T07:06:40.171Z,15.00
2018-04-29T07:09:08.598Z,15.10
2018-04-29T07:11:54.801Z,15.10
2018-04-29T07:17:04.464Z,15.10
2018-04-29T07:19:32.010Z,14.90
2018-04-29T07:21:59.552Z,14.60
2018-04-29T07:24:27.069Z,14.70
2018-04-29T07:26:56.293Z,14.90
2018-04-29T07:29:23.835Z,14.90
2018-04-29T07:31:52.112Z,14.60
2018-04-29T07:34:19.725Z,14.60
2018-04-29T07:36:47.264Z,14.60
2018-04-29T07:39:15.538Z,14.70
2018-04-29T07:41:43.867Z,14.50
2018-04-29T07:44:11.377Z,14.50
2018-04-29T07:46:39.862Z,14.60
2018-04-29T07:49:07.401Z,14.90
2018-04-29T07:51:35.845Z,14.70
2018-04-29T07:54:03.375Z,14.70
2018-04-29T07:56:31.680Z,14.80
2018-04-29T07:58:59.239Z,14.80
2018-04-29T08:01:27.587Z,15.30
2018-04-29T08:03:56.056Z,15.20
2018-04-29T08:06:23.649Z,15.20
2018-04-29T08:08:51.249Z,15.10
2018-04-29T08:11:18.749Z,15.20
2018-04-29T08:16:48.050Z,15.50
2018-04-29T08:19:16.632Z,15.70
2018-04-29T08:21:46.018Z,16.00
2018-04-29T08:24:13.591Z,16.20
2018-04-29T08:26:41.182Z,16.30
2018-04-29T08:29:10.969Z,16.40
2018-04-29T08:31:39.535Z,16.40
2018-04-29T08:34:07.901Z,16.90
2018-04-29T08:36:35.458Z,16.80
2018-04-29T08:39:03.106Z,16.80
2018-04-29T08:41:30.698Z,17.20
2018-04-29T08:43:59.077Z,17.80
2018-04-29T08:46:26.631Z,17.70
2018-04-29T08:48:54.133Z,17.70
2018-04-29T08:51:21.688Z,17.80
2018-04-29T08:53:49.202Z,18.00
2018-04-29T08:56:16.775Z,18.00
2018-04-29T08:58:44.450Z,18.70
2018-04-29T09:01:12.051Z,18.70
2018-04-29T09:03:39.662Z,18.60
2018-04-29T09:06:07.197Z,18.70
2018-04-29T09:08:34.803Z,18.80
2018-04-29T09:11:02.363Z,18.70
2018-04-29T09:13:29.922Z,19.20
2018-04-29T09:15:58.390Z,19.40
2018-04-29T09:18:25.940Z,19.30
2018-04-29T09:20:53.513Z,19.20
2018-04-29T09:23:21.604Z,19.50
2018-04-29T09:25:49.113Z,19.70
2018-04-29T09:28:16.653Z,19.70
2018-04-29T09:30:45.122Z,19.60
2018-04-29T09:33:12.819Z,19.30
2018-04-29T09:35:40.350Z,19.20
2018-04-29T09:38:08.851Z,19.20
2018-04-29T09:40:36.428Z,19.20
2018-04-29T09:43:04.308Z,19.10
2018-04-29T09:45:31.860Z,19.10
2018-04-29T09:48:01.287Z,19.20
2018-04-29T09:50:29.000Z,19.30
2018-04-29T09:52:56.539Z,19.50
2018-04-29T09:55:24.886Z,19.50
2018-04-29T09:57:52.369Z,19.40
2018-04-29T10:00:25.747Z,19.50
2018-04-29T10:02:53.290Z,20.00
2018-04-29T10:05:22.755Z,19.80
2018-04-29T10:07:51.122Z,20.50
2018-04-29T10:10:19.416Z,20.40
2018-04-29T10:12:47.711Z,20.50
2018-04-29T10:15:15.344Z,20.40
2018-04-29T10:17:42.915Z,20.60
2018-04-29T10:20:10.443Z,21.10
2018-04-29T10:22:38.065Z,21.40
2018-04-29T10:25:05.598Z,21.70
2018-04-29T10:27:33.180Z,22.00
2018-04-29T10:30:00.740Z,21.70
2018-04-29T10:32:28.300Z,21.80
2018-04-29T10:34:56.063Z,22.20
2018-04-29T10:37:23.657Z,22.50
2018-04-29T10:39:51.293Z,22.90
2018-04-29T10:42:18.843Z,23.30
2018-04-29T10:44:46.450Z,23.80
2018-04-29T10:47:13.996Z,24.10
2018-04-29T10:50:00.158Z,24.20
2018-04-29T10:52:27.747Z,24.10
2018-04-29T10:57:37.445Z,24.10
2018-04-29T11:00:05.095Z,24.40
2018-04-29T11:02:33.536Z,24.10
2018-04-29T11:05:02.048Z,24.10
2018-04-29T11:07:29.598Z,24.00
2018-04-29T11:09:58.226Z,23.90
2018-04-29T11:12:25.829Z,23.90
2018-04-29T11:14:57.066Z,23.90
2018-04-29T11:17:24.715Z,24.10
2018-04-29T11:19:53.173Z,24.00
2018-04-29T11:22:20.864Z,24.20
2018-04-29T11:24:48.366Z,24.40
2018-04-29T11:27:15.948Z,25.10
2018-04-29T11:29:44.273Z,26.70
2018-04-29T11:32:11.789Z,26.70
2018-04-29T11:34:40.263Z,26.40
2018-04-29T11:37:07.848Z,25.90
2018-04-29T11:39:35.419Z,25.90
2018-04-29T11:42:02.977Z,26.10
2018-04-29T11:44:32.419Z,26.00
2018-04-29T11:47:02.648Z,26.40
2018-04-29T11:49:30.934Z,26.70
2018-04-29T11:51:59.442Z,26.60
2018-04-29T11:54:26.980Z,26.70
2018-04-29T11:56:54.943Z,26.60
2018-04-29T11:59:22.496Z,26.50
2018-04-29T12:01:50.147Z,26.90
2018-04-29T12:04:17.699Z,27.10
2018-04-29T12:06:46.983Z,27.20
2018-04-29T12:09:14.504Z,27.20
2018-04-29T12:11:43.751Z,27.20
2018-04-29T12:14:13.148Z,27.20
2018-04-29T12:16:40.680Z,27.10
2018-04-29T12:19:09.888Z,27.10
2018-04-29T12:21:38.220Z,27.10
2018-04-29T12:24:05.768Z,27.10
2018-04-29T12:26:33.320Z,26.90
2018-04-29T12:29:00.834Z,26.80
2018-04-29T12:31:28.414Z,27.00
2018-04-29T12:33:56.755Z,27.10
2018-04-29T12:36:24.293Z,27.00
2018-04-29T12:38:51.819Z,27.10
2018-04-29T12:41:20.112Z,27.00
2018-04-29T12:43:48.649Z,26.90
2018-04-29T12:46:16.157Z,27.00
2018-04-29T12:48:43.687Z,27.10
2018-04-29T12:51:11.231Z,27.00
2018-04-29T12:53:38.808Z,27.00
2018-04-29T12:56:06.390Z,26.90
2018-04-29T12:58:33.945Z,26.50
2018-04-29T13:01:01.564Z,25.80
2018-04-29T13:03:29.125Z,25.30
2018-04-29T13:05:56.637Z,25.10
2018-04-29T13:08:24.157Z,25.30
2018-04-29T13:10:53.627Z,25.60
2018-04-29T13:13:22.021Z,26.10
2018-04-29T13:15:49.540Z,26.00
2018-04-29T13:18:17.067Z,26.70
2018-04-29T13:20:46.366Z,26.60
2018-04-29T13:23:14.866Z,26.40
2018-04-29T13:25:42.422Z,26.30
2018-04-29T13:28:10.034Z,26.40
2018-04-29T13:30:37.574Z,26.20
2018-04-29T13:33:05.995Z,26.40
2018-04-29T13:35:34.438Z,26.00
2018-04-29T13:38:02.041Z,26.10
2018-04-29T13:40:29.639Z,25.40
2018-04-29T13:42:59.896Z,25.00
2018-04-29T13:45:28.265Z,25.00
2018-04-29T13:47:55.799Z,24.50
2018-04-29T13:50:23.348Z,24.80
2018-04-29T13:52:50.906Z,25.30
2018-04-29T13:55:18.772Z,25.70
2018-04-29T13:57:46.357Z,25.50
2018-04-29T14:00:14.813Z,25.20
2018-04-29T14:02:42.333Z,24.80
2018-04-29T14:05:10.618Z,25.50
2018-04-29T14:07:38.986Z,25.80
2018-04-29T14:10:06.616Z,25.80
2018-04-29T14:12:35.104Z,26.20
2018-04-29T14:15:02.611Z,26.00
2018-04-29T14:17:30.163Z,26.00
2018-04-29T14:19:57.784Z,26.00
2018-04-29T14:22:25.276Z,26.00
2018-04-29T14:24:52.831Z,26.10
2018-04-29T14:27:20.446Z,26.10
2018-04-29T14:29:47.968Z,26.30
2018-04-29T14:32:17.420Z,26.20
2018-04-29T14:34:45.741Z,26.40
2018-04-29T14:37:13.308Z,26.40
2018-04-29T14:39:40.809Z,26.30
2018-04-29T14:42:09.424Z,26.00
2018-04-29T14:44:37.874Z,25.80
2018-04-29T14:47:05.476Z,25.60
2018-04-29T14:49:33.907Z,25.80
2018-04-29T14:52:02.115Z,25.70
2018-04-29T14:54:30.415Z,25.80
2018-04-29T14:56:57.935Z,25.80
2018-04-29T14:59:26.364Z,25.70
2018-04-29T15:01:53.960Z,25.80
2018-04-29T15:04:22.432Z,25.90
2018-04-29T15:06:49.972Z,25.80
2018-04-29T15:09:18.233Z,25.80
2018-04-29T15:11:45.731Z,25.80
2018-04-29T15:14:14.031Z,25.70
2018-04-29T15:16:41.590Z,25.80
2018-04-29T15:19:09.155Z,25.60
2018-04-29T15:21:37.594Z,25.70
2018-04-29T15:24:05.520Z,25.60
2018-04-29T15:26:33.019Z,25.70
2018-04-29T15:29:00.525Z,25.50
2018-04-29T15:31:28.170Z,25.40
2018-04-29T15:33:56.456Z,25.60
2018-04-29T15:36:24.762Z,25.60
2018-04-29T15:38:52.262Z,25.60
2018-04-29T15:41:20.750Z,25.50
2018-04-29T15:43:49.280Z,25.50
2018-04-29T15:46:16.800Z,25.60
2018-04-29T15:48:45.259Z,25.50
2018-04-29T15:51:12.822Z,25.40
2018-04-29T15:53:40.388Z,25.10
2018-04-29T15:56:07.918Z,25.00
2018-04-29T15:58:35.442Z,25.10
2018-04-29T16:01:04.910Z,25.00
2018-04-29T16:03:32.526Z,25.00
2018-04-29T16:06:00.734Z,24.90
2018-04-29T16:08:28.301Z,24.90
2018-04-29T16:10:56.580Z,24.80
2018-04-29T16:13:24.119Z,24.80
2018-04-29T16:15:51.638Z,24.70
2018-04-29T16:18:19.154Z,24.60
2018-04-29T16:20:46.700Z,24.20
2018-04-29T16:23:14.210Z,24.00
2018-04-29T16:25:41.790Z,23.80
2018-04-29T16:28:10.236Z,23.50
2018-04-29T16:30:37.761Z,23.30
2018-04-29T16:33:05.278Z,23.20
2018-04-29T16:35:32.829Z,23.20
2018-04-29T16:38:02.078Z,23.00
2018-04-29T16:40:29.577Z,22.90
2018-04-29T16:42:57.157Z,22.80
2018-04-29T16:45:24.740Z,22.70
2018-04-29T16:47:53.050Z,22.50
2018-04-29T16:50:20.681Z,22.50
2018-04-29T16:52:48.964Z,22.40
2018-04-29T16:55:19.158Z,22.40
2018-04-29T16:57:46.699Z,22.30
2018-04-29T17:00:14.297Z,22.30
2018-04-29T17:02:41.855Z,22.20
2018-04-29T17:05:09.367Z,22.20
2018-04-29T17:07:36.868Z,22.10
2018-04-29T17:10:04.465Z,22.10
2018-04-29T17:12:32.897Z,22.10
2018-04-29T17:15:00.495Z,22.10
2018-04-29T17:17:29.960Z,22.00
2018-04-29T17:19:57.460Z,21.90
2018-04-29T17:22:24.979Z,21.90
2018-04-29T17:24:52.531Z,21.80
2018-04-29T17:27:22.756Z,21.70
2018-04-29T17:29:50.345Z,21.70
2018-04-29T17:32:17.864Z,21.70
2018-04-29T17:34:45.383Z,21.60
2018-04-29T17:37:12.903Z,21.60
2018-04-29T17:39:40.519Z,21.50
2018-04-29T17:42:08.007Z,21.70
2018-04-29T17:44:35.584Z,21.70
2018-04-29T17:47:03.900Z,21.50
2018-04-29T17:49:31.456Z,21.50
2018-04-29T17:51:58.991Z,21.40
2018-04-29T17:54:26.635Z,21.40
2018-04-29T17:56:55.105Z,21.50
2018-04-29T17:59:22.639Z,21.50
2018-04-29T18:01:50.157Z,21.30
2018-04-29T18:04:18.646Z,21.20
2018-04-29T18:06:46.156Z,21.10
2018-04-29T18:09:14.689Z,21.30
2018-04-29T18:11:43.168Z,21.30
2018-04-29T18:14:10.695Z,21.20
2018-04-29T18:16:38.313Z,21.30
2018-04-29T18:19:05.828Z,21.00
2018-04-29T18:21:33.399Z,21.00
2018-04-29T18:24:00.930Z,21.20
2018-04-29T18:26:29.540Z,21.20
2018-04-29T18:28:57.223Z,21.20
2018-04-29T18:31:24.883Z,21.00
2018-04-29T18:33:52.423Z,21.10
2018-04-29T18:36:22.726Z,20.90
2018-04-29T18:38:51.303Z,20.90
2018-04-29T18:41:18.992Z,21.00
2018-04-29T18:43:47.259Z,20.90
2018-04-29T18:46:14.786Z,20.90
2018-04-29T18:48:42.388Z,20.70
2018-04-29T18:51:10.020Z,20.60
2018-04-29T18:53:37.477Z,20.60
2018-04-29T18:56:05.096Z,20.80
2018-04-29T18:58:32.630Z,20.70
2018-04-29T19:01:00.155Z,20.60
2018-04-29T19:03:27.730Z,20.60
2018-04-29T19:06:00.197Z,20.70
2018-04-29T19:08:28.616Z,20.50
2018-04-29T19:10:57.076Z,20.40
2018-04-29T19:13:24.644Z,20.60
2018-04-29T19:15:54.075Z,20.60
2018-04-29T19:18:22.627Z,20.70
2018-04-29T19:20:51.069Z,20.60
2018-04-29T19:23:18.639Z,20.60
2018-04-29T19:25:47.044Z,20.50
2018-04-29T19:28:15.317Z,20.30
2018-04-29T19:30:44.536Z,20.20
2018-04-29T19:33:12.106Z,20.20
2018-04-29T19:35:39.692Z,20.30
2018-04-29T19:38:07.340Z,20.40
2018-04-29T19:40:34.844Z,20.40
2018-04-29T19:43:03.163Z,20.20
2018-04-29T19:45:30.683Z,20.20
2018-04-29T19:47:58.266Z,20.20
2018-04-29T19:50:29.812Z,20.10
2018-04-29T19:52:57.344Z,20.20
2018-04-29T19:55:24.934Z,20.10
2018-04-29T19:57:52.612Z,20.10
2018-04-29T20:00:20.949Z,20.20
2018-04-29T20:02:49.469Z,20.20
2018-04-29T20:05:16.981Z,20.30
2018-04-29T20:07:48.276Z,20.40
2018-04-29T20:10:15.852Z,20.40
2018-04-29T20:12:44.302Z,20.40
2018-04-29T20:15:11.863Z,20.40
2018-04-29T20:17:39.481Z,20.20
2018-04-29T20:20:07.155Z,20.10
2018-04-29T20:22:36.367Z,20.40
2018-04-29T20:25:03.986Z,20.30
2018-04-29T20:27:31.588Z,20.40
2018-04-29T20:29:59.331Z,20.60
2018-04-29T20:32:38.784Z,20.70
2018-04-29T20:35:06.351Z,20.80
2018-04-29T20:37:33.933Z,20.70
2018-04-29T20:40:02.243Z,21.10
2018-04-29T20:42:29.856Z,21.10
2018-04-29T20:44:58.411Z,21.10
2018-04-29T20:47:25.924Z,21.00
2018-04-29T20:49:55.164Z,21.10
2018-04-29T20:52:23.638Z,21.10
2018-04-29T20:54:52.682Z,21.00
2018-04-29T20:57:20.294Z,20.90
2018-04-29T20:59:47.852Z,20.90
2018-04-29T21:02:16.884Z,20.50
2018-04-29T21:04:44.463Z,20.50
2018-04-29T21:07:11.961Z,20.60
2018-04-29T21:09:39.625Z,20.50
2018-04-29T21:12:07.140Z,20.40
2018-04-29T21:14:34.966Z,20.20
2018-04-29T21:17:03.422Z,20.30
2018-04-29T21:19:31.981Z,20.30
2018-04-29T21:21:59.506Z,20.30
2018-04-29T21:24:29.027Z,20.20
2018-04-29T21:26:56.605Z,20.30
2018-04-29T21:29:24.205Z,20.20
2018-04-29T21:31:51.794Z,20.10
2018-04-29T21:34:19.320Z,20.00
2018-04-29T21:36:46.820Z,20.10
2018-04-29T21:39:14.336Z,20.30
2018-04-29T21:41:41.944Z,20.30
2018-04-29T21:44:09.477Z,20.10
2018-04-29T21:46:37.579Z,20.00
2018-04-29T21:49:05.215Z,20.00
2018-04-29T21:51:33.652Z,20.00
2018-04-29T21:54:01.238Z,20.10
2018-04-29T21:56:29.592Z,20.10
2018-04-29T21:58:58.028Z,20.00
2018-04-29T22:01:25.547Z,19.90
2018-04-29T22:03:53.161Z,19.70
2018-04-29T22:06:21.631Z,19.70
2018-04-29T22:08:50.036Z,19.60
2018-04-29T22:11:18.551Z,19.50
2018-04-29T22:13:46.142Z,19.70
2018-04-29T22:16:13.655Z,19.70
2018-04-29T22:18:41.160Z,19.60
2018-04-29T22:21:08.688Z,19.70
2018-04-29T22:23:36.501Z,19.60
2018-04-29T22:26:04.019Z,19.60
2018-04-29T22:28:31.524Z,19.40
2018-04-29T22:30:59.951Z,19.00
2018-04-29T22:33:29.384Z,19.00
2018-04-29T22:35:58.856Z,19.00
2018-04-29T22:38:26.380Z,19.00
2018-04-29T22:40:53.972Z,18.80
2018-04-29T22:43:22.360Z,18.40
2018-04-29T22:45:49.869Z,18.40
2018-04-29T22:48:17.415Z,18.30
2018-04-29T22:50:45.014Z,18.30
2018-04-29T22:53:12.553Z,18.50
2018-04-29T22:55:40.983Z,18.80
2018-04-29T22:58:08.496Z,18.80
2018-04-29T23:00:36.116Z,18.80
2018-04-29T23:03:05.623Z,18.70
2018-04-29T23:05:33.174Z,18.70
2018-04-29T23:08:00.703Z,18.70
2018-04-29T23:10:28.205Z,18.60
2018-04-29T23:12:55.759Z,18.70
2018-04-29T23:15:23.382Z,18.60
2018-04-29T23:17:50.919Z,18.50
2018-04-29T23:20:18.511Z,18.40
2018-04-29T23:22:46.112Z,18.40
2018-04-29T23:25:13.786Z,18.30
2018-04-29T23:27:41.632Z,18.20
2018-04-29T23:30:09.197Z,18.10
2018-04-29T23:32:37.651Z,17.90
2018-04-29T23:35:06.851Z,17.90
2018-04-29T23:37:34.385Z,17.90
2018-04-29T23:40:01.927Z,17.80
2018-04-29T23:42:29.488Z,17.70
2018-04-29T23:44:57.093Z,17.60
2018-04-29T23:47:25.373Z,17.60
2018-04-29T23:49:53.687Z,17.60
2018-04-29T23:52:22.147Z,17.60
2018-04-29T23:54:49.705Z,17.60
2018-04-29T23:57:18.139Z,17.80
2018-04-29T23:59:45.656Z,17.80
